Marche Airport

LIPY · 马尔凯, 意大利

METAR的历史 LIPY · Ancona Falconara Airport

下面你可以看到过去几天的METARs。 选择年份以浏览从2007年开始的旧METAR。

2022年12月6日

时间 代码 天气 温度 能见度 天花板 METAR/SPECI
11:20
I
10 °C 7 km 900 ft 210° 210° 3 kt METAR LIPY 061020Z AUTO 21003KT 7000 -RA BKN009/// OVC058/// 10/09 Q1016
10:50
M
10 °C 6 km 1.000 ft 210° 210° 4 kt METAR LIPY 060950Z AUTO 21004KT 6000 -RA BKN010/// OVC045/// 10/09 Q1017
10:20
M
10 °C 6 km 1.300 ft Var Var 2 kt METAR LIPY 060920Z AUTO VRB02KT 6000 -RA BKN013/// OVC054/// 10/09 Q1017
09:50
I
10 °C 6 km 900 ft 240° 240° 4 kt METAR LIPY 060850Z AUTO 24004KT 6000 OVC009/// 10/09 Q1017
09:20
I
9 °C 3,6 km 800 ft Var Var 1 kt METAR LIPY 060820Z AUTO VRB01KT 3600 -RA BR OVC008/// 09/09 Q1016 RERA
08:50
I
9 °C 3,6 km 6.800 ft Var Var 1 kt METAR LIPY 060750Z AUTO VRB01KT 3600 RA SCT008/// OVC068/// 09/09 Q1016
08:20
M
9 °C 5 km 5.600 ft 260° 260° 3 kt METAR LIPY 060720Z AUTO 26003KT 5000 -RA SCT009/// OVC056/// 09/09 Q1016
07:50
M
9 °C 5 km 6.300 ft Var Var 2 kt METAR LIPY 060650Z AUTO VRB02KT 5000 -RA SCT008/// OVC063/// 09/09 Q1016
07:20
I
9 °C 5 km 600 ft 250° 250° 3 kt METAR LIPY 060620Z AUTO 25003KT 200V270 5000 -RA BKN006/// OVC066/// 09/09 Q1016 RERA
06:50
I
9 °C 3,5 km 500 ft 260° 260° 3 kt METAR LIPY 060550Z AUTO 26003KT 220V280 3500 RA BKN005/// BKN052/// OVC059/// 09/09 Q1016
06:20
L
10 °C 5 km 400 ft Var Var 1 kt METAR LIPY 060520Z AUTO VRB01KT 5000 -RA BKN004/// OVC057/// 10/09 Q1016
05:50
M
10 °C 7 km 5.000 ft Var Var 2 kt METAR LIPY 060450Z AUTO VRB02KT 7000 -RA SCT005/// BKN050/// BKN071/// 10/09 Q1016
05:20
I
10 °C 9 km 500 ft 320° 320° 5 kt METAR LIPY 060420Z AUTO 32005KT 9000 -RA BKN005/// BKN067/// OVC085/// 10/09 Q1016
04:50
I
10 °C 10 km+ 500 ft 320° 320° 5 kt METAR LIPY 060350Z AUTO 32005KT 270V360 9999 BKN005/// BKN068/// 10/10 Q1016
04:20
V
10 °C 10 km+ 9.300 ft 340° 340° 3 kt METAR LIPY 060320Z AUTO 34003KT 280V040 9999 -RA SCT005/// BKN093/// BKN100/// 10/10 Q1016
03:50
V
10 °C 10 km+ 10.000 ft 350° 350° 7 kt METAR LIPY 060250Z AUTO 35007KT 320V020 9999 FEW005/// SCT093/// BKN100/// 10/10 Q1016
03:20
V
11 °C 10 km+ 5.600 ft 340° 340° 9 kt METAR LIPY 060220Z AUTO 34009KT 9999 SCT004/// BKN056/// BKN190/// 11/10 Q1016
02:50
V
11 °C 9 km 19.000 ft 330° 330° 10 kt METAR LIPY 060150Z AUTO 33010KT 9000 FEW003/// SCT092/// BKN190/// 11/10 Q1016
02:20
M
11 °C 7 km 21.000 ft 360° 360° 5 kt METAR LIPY 060120Z AUTO 36005KT 310V030 7000 FEW088/// BKN210/// 11/10 Q1016
01:50
V
12 °C 10 km+ 7.400 ft 330° 330° 5 kt METAR LIPY 060050Z AUTO 33005KT 9999 -RA BKN074/// BKN210/// 12/09 Q1016
01:20
V
13 °C 10 km+ 22.000 ft 200° 200° 5 kt METAR LIPY 060020Z AUTO 20005KT 9999 SCT081/// OVC220/// 13/07 Q1016
00:50
V
13 °C 10 km+ 22.000 ft 190° 190° 6 kt METAR LIPY 052350Z AUTO 19006KT 9999 SCT077/// BKN220/// 13/07 Q1016
00:20
V
13 °C 10 km+ 22.000 ft 200° 200° 5 kt METAR LIPY 052320Z AUTO 20005KT 9999 FEW091/// BKN220/// 13/07 Q1016

2022年12月5日

时间 代码 天气 温度 能见度 天花板 METAR/SPECI
23:50
V
12 °C 10 km+ 21.000 ft 200° 200° 5 kt METAR LIPY 052250Z AUTO 20005KT 170V230 9999 BKN210/// 12/07 Q1017
23:20
V
12 °C 10 km+ 22.000 ft 200° 200° 5 kt METAR LIPY 052220Z AUTO 20005KT 9999 BKN220/// 12/07 Q1017
22:50
V
8 °C 10 km+ - Var Var 2 kt METAR LIPY 052150Z AUTO VRB02KT 9999 FEW089/// 08/07 Q1017
22:20
V
9 °C 10 km+ - Var Var 1 kt METAR LIPY 052120Z AUTO VRB01KT 9999 NCD 09/08 Q1017
21:50
V
9 °C 10 km+ - Var Var 2 kt METAR LIPY 052050Z AUTO VRB02KT 9999 NCD 09/07 Q1017
21:20
V
10 °C 10 km+ 9.300 ft Var Var 2 kt METAR LIPY 052020Z AUTO VRB02KT 9999 BKN093/// 10/09 Q1017
20:50
V
10 °C 10 km+ - 220° 220° 4 kt METAR LIPY 051950Z AUTO 22004KT 180V270 9999 NCD 10/08 Q1017
20:20
V
12 °C 10 km+ - 170° 170° 4 kt METAR LIPY 051920Z AUTO 17004KT 9999 NCD 12/09 Q1017
19:50
V
12 °C 10 km+ - 180° 180° 3 kt METAR LIPY 051850Z AUTO 18003KT 9999 FEW075/// 12/09 Q1017
19:20
V
12 °C 10 km+ 7.500 ft 170° 170° 2 kt METAR LIPY 051820Z AUTO 17002KT 9999 FEW067/// BKN075/// 12/10 Q1017
18:50
V
13 °C 10 km+ 8.100 ft Var Var 1 kt METAR LIPY 051750Z AUTO VRB01KT 9999 OVC081/// 13/10 Q1017
18:20
V
13 °C 10 km+ 5.800 ft Var Var 2 kt METAR LIPY 051720Z AUTO VRB02KT 9999 OVC058/// 13/09 Q1017
17:50
V
14 °C 10 km+ 5.900 ft 230° 230° 3 kt METAR LIPY 051650Z AUTO 23003KT 9999 OVC059/// 14/09 Q1017
17:20
V
14 °C 10 km+ 6.300 ft 220° 220° 4 kt METAR LIPY 051620Z AUTO 22004KT 200V260 9999 OVC063/// 14/09 Q1017
16:50
V
15 °C 10 km+ 6.300 ft 180° 180° 3 kt METAR LIPY 051550Z AUTO 18003KT 150V210 9999 BKN063/// OVC085/// 15/09 Q1017
16:20
V
15 °C 10 km+ 6.200 ft 140° 140° 4 kt METAR LIPY 051520Z AUTO 14004KT 9999 OVC062/// 15/10 Q1017
15:50
V
16 °C 10 km+ 6.500 ft Var Var 2 kt METAR LIPY 051450Z AUTO VRB02KT 9999 -RA OVC065/// 16/10 Q1017
15:20
V
15 °C 10 km+ 6.700 ft 030° 030° 3 kt METAR LIPY 051420Z AUTO 03003KT 9999 BKN067/// BKN130/// 15/12 Q1017
14:50
V
16 °C 10 km+ 14.000 ft Var Var 1 kt METAR LIPY 051350Z AUTO VRB01KT 9999 FEW075/// OVC140/// 16/13 Q1017
14:20
V
15 °C 10 km+ 8.500 ft Var Var 2 kt METAR LIPY 051320Z AUTO VRB02KT 9999 FEW053/// BKN085/// 15/13 Q1017
13:50
V
15 °C 10 km+ 10.000 ft Var Var 2 kt METAR LIPY 051250Z AUTO VRB02KT 9999 FEW051/// BKN100/// 15/12 Q1017
13:20
V
15 °C 10 km+ 10.000 ft Var Var 2 kt METAR LIPY 051220Z AUTO VRB02KT 9999 SCT057/// BKN100/// BKN170/// 15/12 Q1018
12:50
V
15 °C 10 km+ 12.000 ft 280° 280° 1 kt METAR LIPY 051150Z AUTO 28001KT 9999 FEW062/// BKN120/// BKN180/// 15/12 Q1018
12:20
V
15 °C 10 km+ 6.300 ft 050° 050° 4 kt METAR LIPY 051120Z AUTO 05004KT 9999 BKN063/// BKN100/// 15/11 Q1018
11:50
V
17 °C 10 km+ 9.200 ft Var Var 2 kt METAR LIPY 051050Z AUTO VRB02KT 9999 FEW063/// OVC092/// 17/10 Q1019
11:20
V
17 °C 10 km+ 7.700 ft Var Var 2 kt METAR LIPY 051020Z AUTO VRB02KT 9999 OVC077/// 17/10 Q1019
10:50
V
15 °C 10 km+ 8.200 ft Var Var 2 kt METAR LIPY 050950Z AUTO VRB02KT 9999 BKN082/// BKN140/// 15/11 Q1019
10:20
V
14 °C 10 km+ 7.600 ft Var Var 2 kt METAR LIPY 050920Z AUTO VRB02KT 9999 BKN076/// 14/12 Q1019
09:50
V
12 °C 10 km+ 7.400 ft Var Var 2 kt METAR LIPY 050850Z AUTO VRB02KT 9999 OVC074/// 12/11 Q1019
09:20
V
11 °C 10 km+ 7.000 ft Var Var 2 kt METAR LIPY 050820Z AUTO VRB02KT 9999 -RA OVC070/// 11/10 Q1019
08:50
V
13 °C 10 km+ 7.900 ft 200° 200° 4 kt METAR LIPY 050750Z AUTO 20004KT 9999 -RA OVC079/// 13/09 Q1019 REDZ
08:20
V
12 °C 10 km+ 7.500 ft 190° 190° 3 kt METAR LIPY 050720Z AUTO 19003KT 9999 OVC075/// 12/09 Q1019
07:50
V
11 °C 10 km+ 7.200 ft Var Var 2 kt METAR LIPY 050650Z AUTO VRB02KT 9999 OVC072/// 11/09 Q1019
07:20
V
11 °C 10 km+ 7.400 ft 200° 200° 4 kt METAR LIPY 050620Z AUTO 20004KT 9999 OVC074/// 11/09 Q1019
06:50
V
10 °C 10 km+ 7.800 ft 200° 200° 3 kt METAR LIPY 050550Z AUTO 20003KT 140V260 9999 -RA FEW067/// BKN078/// 10/09 Q1019
06:20
V
10 °C 10 km+ 6.400 ft 220° 220° 3 kt METAR LIPY 050520Z AUTO 22003KT 130V260 9999 BKN064/// BKN083/// 10/08 Q1018
05:50
V
11 °C 10 km+ 8.000 ft 170° 170° 4 kt METAR LIPY 050450Z AUTO 17004KT 9999 BKN080/// 11/09 Q1018
05:20
V
11 °C 10 km+ 7.100 ft 170° 170° 4 kt METAR LIPY 050420Z AUTO 17004KT 140V210 9999 OVC071/// 11/09 Q1018
04:50
V
11 °C 10 km+ 7.400 ft 170° 170° 4 kt METAR LIPY 050350Z AUTO 17004KT 150V210 9999 -RA OVC074/// 11/10 Q1018
04:20
V
9 °C 10 km+ 7.000 ft 210° 210° 3 kt METAR LIPY 050320Z AUTO 21003KT 140V240 9999 -RA OVC070/// 09/09 Q1018
03:50
V
10 °C 10 km+ 7.100 ft 180° 180° 3 kt METAR LIPY 050250Z AUTO 18003KT 160V260 9999 -RA OVC071/// 10/09 Q1018
03:20
V
9 °C 10 km+ 10.000 ft 190° 190° 3 kt METAR LIPY 050220Z AUTO 19003KT 150V210 9999 -RA SCT067/// OVC100/// 09/08 Q1018
02:50
V
9 °C 10 km+ 6.800 ft Var Var 2 kt METAR LIPY 050150Z AUTO VRB02KT 9999 -RA OVC068/// 09/08 Q1018 REDZ
02:20
V
9 °C 10 km+ 11.000 ft 180° 180° 3 kt METAR LIPY 050120Z AUTO 18003KT 140V250 9999 SCT074/// BKN110/// 09/08 Q1018
01:50
V
9 °C 10 km+ 8.300 ft 180° 180° 3 kt METAR LIPY 050050Z AUTO 18003KT 130V220 9999 OVC083/// 09/08 Q1018
01:20
V
8 °C 10 km+ - 190° 190° 3 kt METAR LIPY 050020Z AUTO 19003KT 130V240 9999 SCT100/// 08/07 Q1018
00:50
V
8 °C 10 km+ 23.000 ft 210° 210° 5 kt METAR LIPY 042350Z AUTO 21005KT 170V250 9999 SCT092/// BKN230/// 08/07 Q1018
00:20
V
9 °C 10 km+ - 180° 180° 3 kt METAR LIPY 042320Z AUTO 18003KT 130V190 9999 FEW130/// SCT180/// 09/07 Q1018

2022年12月4日

时间 代码 天气 温度 能见度 天花板 METAR/SPECI
23:50
V
9 °C 10 km+ 24.000 ft 200° 200° 3 kt METAR LIPY 042250Z AUTO 20003KT 170V230 9999 SCT130/// BKN240/// 09/08 Q1018
23:20
V
9 °C 10 km+ - 180° 180° 3 kt METAR LIPY 042220Z AUTO 18003KT 150V210 9999 SCT200/// 09/08 Q1018
22:50
V
9 °C 10 km+ - 160° 160° 4 kt METAR LIPY 042150Z AUTO 16004KT 9999 FEW240/// 09/08 Q1018
22:20
V
10 °C 10 km+ - 180° 180° 3 kt METAR LIPY 042120Z AUTO 18003KT 9999 FEW120/// 10/09 Q1018
21:50
V
10 °C 10 km+ - 170° 170° 3 kt METAR LIPY 042050Z AUTO 17003KT 130V200 9999 FEW080/// 10/09 Q1018
21:20
V
11 °C 10 km+ 8.000 ft 180° 180° 3 kt METAR LIPY 042020Z AUTO 18003KT 9999 BKN080/// 11/09 Q1018
20:50
V
11 °C 10 km+ 20.000 ft 210° 210° 3 kt METAR LIPY 041950Z AUTO 21003KT 170V240 9999 FEW080/// BKN200/// 11/10 Q1017
20:20
V
12 °C 10 km+ 10.000 ft 150° 150° 4 kt METAR LIPY 041920Z AUTO 15004KT 9999 SCT087/// BKN100/// BKN200/// 12/10 Q1017
19:50
V
12 °C 10 km+ 9.700 ft 140° 140° 4 kt METAR LIPY 041850Z AUTO 14004KT 9999 BKN097/// OVC110/// 12/10 Q1017
19:20
V
11 °C 10 km+ 7.500 ft 260° 260° 4 kt METAR LIPY 041820Z AUTO 26004KT 210V290 9999 BKN075/// BKN100/// OVC170/// 11/10 Q1017
18:50
V
12 °C 10 km+ 7.500 ft 170° 170° 3 kt METAR LIPY 041750Z AUTO 17003KT 9999 OVC075/// 12/11 Q1017
18:20
V
12 °C 10 km+ 6.900 ft 170° 170° 3 kt METAR LIPY 041720Z AUTO 17003KT 9999 BKN069/// OVC110/// 12/11 Q1017
17:50
V
12 °C 10 km+ 9.900 ft Var Var 2 kt METAR LIPY 041650Z AUTO VRB02KT 9999 SCT066/// BKN099/// BKN130/// 12/11 Q1016
17:20
V
12 °C 10 km+ 6.600 ft Var Var 1 kt METAR LIPY 041620Z AUTO VRB01KT 9999 OVC066/// 12/11 Q1016
16:50
V
13 °C 10 km+ 8.200 ft Var Var 2 kt METAR LIPY 041550Z AUTO VRB02KT 9999 BKN082/// BKN130/// 13/11 Q1016
16:20
V
13 °C 10 km+ 8.100 ft 170° 170° 2 kt METAR LIPY 041520Z AUTO 17002KT 9999 -RA FEW068/// BKN081/// BKN100/// 13/12 Q1015
15:50
V
14 °C 10 km+ 6.400 ft 220° 220° 2 kt METAR LIPY 041450Z AUTO 22002KT 9999 -RA OVC064/// 14/11 Q1015 REDZ
15:20
V
14 °C 10 km+ 5.600 ft 270° 270° 4 kt METAR LIPY 041420Z AUTO 27004KT 9999 -DZ OVC056/// 14/11 Q1015
14:50
V
15 °C 10 km+ 6.500 ft 220° 220° 3 kt METAR LIPY 041350Z AUTO 22003KT 180V300 9999 BKN065/// BKN096/// BKN150/// 15/10 Q1014
14:20
V
16 °C 10 km+ 6.700 ft 170° 170° 3 kt METAR LIPY 041320Z AUTO 17003KT 120V230 9999 BKN067/// 16/09 Q1014
13:50
V
16 °C 10 km+ 6.200 ft 140° 140° 4 kt METAR LIPY 041250Z AUTO 14004KT 100V210 9999 BKN062/// 16/10 Q1014
13:20
V
15 °C 10 km+ 6.000 ft 150° 150° 5 kt METAR LIPY 041220Z AUTO 15005KT 110V170 9999 BKN060/// 15/10 Q1014
12:50
V
16 °C 10 km+ 6.000 ft Var Var 2 kt METAR LIPY 041150Z AUTO VRB02KT 9999 BKN060/// BKN089/// 16/10 Q1014
12:20
V
16 °C 10 km+ 11.000 ft 160° 160° 4 kt METAR LIPY 041120Z AUTO 16004KT 050V190 9999 SCT061/// BKN110/// 16/10 Q1014
11:50
V
15 °C 10 km+ 14.000 ft 240° 240° 3 kt METAR LIPY 041050Z AUTO 24003KT 200V260 9999 FEW062/// SCT110/// BKN140/// 15/11 Q1014
11:20
V
15 °C 10 km+ 12.000 ft 210° 210° 3 kt METAR LIPY 041020Z AUTO 21003KT 9999 FEW051/// BKN120/// 15/12 Q1013
10:50
V
15 °C 10 km+ 10.000 ft Var Var 2 kt METAR LIPY 040950Z AUTO VRB02KT 9999 FEW055/// BKN100/// 15/12 Q1013

我们和第三方通过cookies跟踪您在我们网站上的互联网行为。如果你继续,我们认为你同意我们的饼干政策